Purmela, Texas
Current Conditions -  °F | °C
As of 11:35 AM on Thursday 23 Oct 2014 (Local Time) from KGOP Reporting Station
Clear Clear  
Wind Chill: 75°   Ceiling: Unl
Heat Index: 75°   Visibility: 10mi
Dew Point: 61°   Wind: 0mph
Humidity: 61%   Direction: NA
Pressure: 30.18"   Gusts: NA
Location:  31.48°N, 97.96°W
Report Text: KGOP 231635Z AUTO 00000KT 10SM CLR 24/16 A3018 RMK AO2
Loading
Personal Weather Stations






























Interactive Weather Map
Tropical Storm Tracking
New forecast layout! Learn more

10-Day Weather Forecast

Advertisements
Track Severe Weather on mobile